createdAt,value
2019-04-07T00:01:42.505Z,15.08
2019-04-07T00:04:12.014Z,14.38
2019-04-07T00:06:40.861Z,13.43
2019-04-07T00:09:11.207Z,14.55
2019-04-07T00:11:39.990Z,14.05
2019-04-07T00:14:08.855Z,14.83
2019-04-07T00:16:37.665Z,14.23
2019-04-07T00:19:08.755Z,14.05
2019-04-07T00:21:37.518Z,14.35
2019-04-07T00:24:08.126Z,13.48
2019-04-07T00:26:37.011Z,15.18
2019-04-07T00:29:05.774Z,13.18
2019-04-07T00:31:35.123Z,13.60
2019-04-07T00:34:03.956Z,13.70
2019-04-07T00:36:35.079Z,13.83
2019-04-07T00:39:05.944Z,12.73
2019-04-07T00:41:36.603Z,13.88
2019-04-07T00:44:06.127Z,13.45
2019-04-07T00:46:35.540Z,12.98
2019-04-07T00:49:05.070Z,13.68
2019-04-07T00:51:37.563Z,14.80
2019-04-07T00:54:06.430Z,14.80
2019-04-07T00:56:37.436Z,14.80
2019-04-07T00:59:06.259Z,14.47
2019-04-07T01:01:35.144Z,14.65
2019-04-07T01:04:04.483Z,17.15
2019-04-07T01:06:33.967Z,14.85
2019-04-07T01:09:04.512Z,14.15
2019-04-07T01:11:33.465Z,13.58
2019-04-07T01:14:02.780Z,13.58
2019-04-07T01:16:32.753Z,13.08
2019-04-07T01:19:01.590Z,12.43
2019-04-07T01:21:30.412Z,12.95
2019-04-07T01:24:01.163Z,12.33
2019-04-07T01:26:29.759Z,12.20
2019-04-07T01:28:59.203Z,12.13
2019-04-07T01:31:28.602Z,13.35
2019-04-07T01:34:00.752Z,13.30
2019-04-07T01:36:29.511Z,12.58
2019-04-07T01:38:58.721Z,11.88
2019-04-07T01:41:31.905Z,12.43
2019-04-07T01:44:02.639Z,12.98
2019-04-07T01:46:33.854Z,13.18
2019-04-07T01:49:10.982Z,12.37
2019-04-07T01:52:00.838Z,12.13
2019-04-07T01:54:47.298Z,12.13
2019-04-07T01:57:18.348Z,12.28
2019-04-07T01:59:54.052Z,12.13
2019-04-07T02:02:42.170Z,12.63
2019-04-07T02:05:13.409Z,12.33
2019-04-07T02:07:44.491Z,12.85
2019-04-07T02:10:32.957Z,12.18
2019-04-07T02:13:07.600Z,12.80
2019-04-07T02:15:38.239Z,13.13
2019-04-07T02:18:24.616Z,12.85
2019-04-07T02:21:01.122Z,12.43
2019-04-07T02:23:48.215Z,13.43
2019-04-07T02:26:18.987Z,11.25
2019-04-07T02:28:55.351Z,9.43
2019-04-07T02:31:29.608Z,12.18
2019-04-07T02:34:03.282Z,12.60
2019-04-07T02:36:46.586Z,12.45
2019-04-07T02:39:26.986Z,11.70
2019-04-07T02:42:17.086Z,11.53
2019-04-07T02:44:54.850Z,12.18
2019-04-07T02:47:31.384Z,12.05
2019-04-07T02:50:03.002Z,12.78
2019-04-07T02:55:28.006Z,11.60
2019-04-07T02:58:04.637Z,11.88
2019-04-07T03:00:38.011Z,11.08
2019-04-07T03:03:08.804Z,12.58
2019-04-07T03:05:42.278Z,12.58
2019-04-07T03:08:22.472Z,11.50
2019-04-07T03:11:09.652Z,12.47
2019-04-07T03:13:52.476Z,12.58
2019-04-07T03:16:29.299Z,11.75
2019-04-07T03:19:04.613Z,12.53
2019-04-07T03:21:39.029Z,12.68
2019-04-07T03:24:12.583Z,12.37
2019-04-07T03:26:46.506Z,12.78
2019-04-07T03:29:35.014Z,12.88
2019-04-07T03:32:14.557Z,13.58
2019-04-07T03:34:44.469Z,12.90
2019-04-07T03:37:29.967Z,12.78
2019-04-07T03:39:52.747Z,13.38
2019-04-07T03:42:35.820Z,12.13
2019-04-07T03:45:11.281Z,13.78
2019-04-07T03:47:59.308Z,13.08
2019-04-07T03:50:29.693Z,12.95
2019-04-07T03:53:13.161Z,12.93
2019-04-07T03:55:49.629Z,12.18
2019-04-07T03:58:37.593Z,13.72
2019-04-07T04:01:25.703Z,12.95
2019-04-07T04:04:11.862Z,13.75
2019-04-07T04:06:53.395Z,14.03
2019-04-07T04:09:29.107Z,13.62
2019-04-07T04:11:59.908Z,14.25
2019-04-07T04:14:46.111Z,13.30
2019-04-07T04:17:16.622Z,14.00
2019-04-07T04:19:46.499Z,13.60
2019-04-07T04:22:15.579Z,14.28
2019-04-07T04:24:44.347Z,14.00
2019-04-07T04:27:15.398Z,14.13
2019-04-07T04:29:44.888Z,15.60
2019-04-07T04:32:15.285Z,14.85
2019-04-07T04:34:44.346Z,15.32
2019-04-07T04:37:13.216Z,15.10
2019-04-07T04:39:44.602Z,15.53
2019-04-07T04:42:13.561Z,16.87
2019-04-07T04:44:44.203Z,17.10
2019-04-07T04:47:12.836Z,16.25
2019-04-07T04:49:41.828Z,16.37
2019-04-07T04:52:11.447Z,15.32
2019-04-07T04:54:40.825Z,15.50
2019-04-07T04:57:09.831Z,16.20
2019-04-07T04:59:40.505Z,14.98
2019-04-07T05:02:10.603Z,15.50
2019-04-07T05:04:39.880Z,14.93
2019-04-07T05:07:11.277Z,14.68
2019-04-07T05:09:46.713Z,15.83
2019-04-07T05:12:12.806Z,15.03
2019-04-07T05:14:43.605Z,15.15
2019-04-07T05:17:12.660Z,15.30
2019-04-07T05:19:43.251Z,15.85
2019-04-07T05:22:12.527Z,15.72
2019-04-07T05:24:42.245Z,15.98
2019-04-07T05:27:11.352Z,16.30
2019-04-07T05:29:41.394Z,15.83
2019-04-07T05:32:11.018Z,16.93
2019-04-07T05:34:42.191Z,16.48
2019-04-07T05:37:10.716Z,16.95
2019-04-07T05:39:40.377Z,17.00
2019-04-07T05:42:09.853Z,17.48
2019-04-07T05:44:41.268Z,16.40
2019-04-07T05:47:12.310Z,17.65
2019-04-07T05:49:41.387Z,17.07
2019-04-07T05:52:11.372Z,17.00
2019-04-07T05:54:40.415Z,17.20
2019-04-07T05:57:09.721Z,17.70
2019-04-07T05:59:41.781Z,17.17
2019-04-07T06:02:09.046Z,16.93
2019-04-07T06:04:37.811Z,19.23
2019-04-07T06:07:09.077Z,19.27
2019-04-07T06:09:39.459Z,19.23
2019-04-07T06:12:09.709Z,20.43
2019-04-07T06:14:38.989Z,19.07
2019-04-07T06:17:07.894Z,17.85
2019-04-07T06:19:39.507Z,18.50
2019-04-07T06:22:11.083Z,18.65
2019-04-07T06:24:40.538Z,19.02
2019-04-07T06:27:09.791Z,18.23
2019-04-07T06:29:38.994Z,18.25
2019-04-07T06:32:10.052Z,20.30
2019-04-07T06:34:41.172Z,20.17
2019-04-07T06:37:09.968Z,21.40
2019-04-07T06:39:39.093Z,20.60
2019-04-07T06:42:08.537Z,20.20
2019-04-07T06:44:37.734Z,19.52
2019-04-07T06:47:09.049Z,19.57
2019-04-07T06:49:46.033Z,21.37
2019-04-07T06:52:20.274Z,19.25
2019-04-07T06:55:08.823Z,18.52
2019-04-07T06:57:41.688Z,19.30
2019-04-07T07:00:23.836Z,20.12
2019-04-07T07:03:09.155Z,19.37
2019-04-07T07:05:56.153Z,19.00
2019-04-07T07:08:46.394Z,18.30
2019-04-07T07:11:30.066Z,17.73
2019-04-07T07:13:59.006Z,18.82
2019-04-07T07:16:44.437Z,19.77
2019-04-07T07:19:14.162Z,21.33
2019-04-07T07:21:44.660Z,20.20
2019-04-07T07:24:18.493Z,18.12
2019-04-07T07:26:48.185Z,19.62
2019-04-07T07:29:18.062Z,19.50
2019-04-07T07:31:46.880Z,18.87
2019-04-07T07:34:16.355Z,19.25
2019-04-07T07:36:46.613Z,21.48
2019-04-07T07:39:15.739Z,19.73
2019-04-07T07:41:44.453Z,20.23
2019-04-07T07:44:13.497Z,19.85
2019-04-07T07:46:44.423Z,20.72
2019-04-07T07:49:15.609Z,20.43
2019-04-07T07:51:46.408Z,21.00
2019-04-07T07:54:15.112Z,20.75
2019-04-07T07:56:48.658Z,20.43
2019-04-07T07:59:15.063Z,20.52
2019-04-07T08:01:46.219Z,20.00
2019-04-07T08:04:15.177Z,21.15
2019-04-07T08:06:44.670Z,19.05
2019-04-07T08:09:16.421Z,20.05
2019-04-07T08:11:44.941Z,19.02
2019-04-07T08:14:18.183Z,19.60
2019-04-07T08:16:44.654Z,19.50
2019-04-07T08:19:13.704Z,19.75
2019-04-07T08:21:44.317Z,19.48
2019-04-07T08:24:16.381Z,19.10
2019-04-07T08:26:43.755Z,19.25
2019-04-07T08:29:13.799Z,18.95
2019-04-07T08:31:44.938Z,20.40
2019-04-07T08:34:14.309Z,18.70
2019-04-07T08:36:45.432Z,19.57
2019-04-07T08:39:21.494Z,19.25
2019-04-07T08:41:44.066Z,20.12
2019-04-07T08:44:12.863Z,21.45
2019-04-07T08:46:43.114Z,20.60
2019-04-07T08:49:12.767Z,19.27
2019-04-07T08:51:42.695Z,20.75
2019-04-07T08:54:15.273Z,20.85
2019-04-07T08:56:43.873Z,21.40
2019-04-07T08:59:16.192Z,22.52
2019-04-07T09:01:43.487Z,22.35
2019-04-07T09:04:15.135Z,21.27
2019-04-07T09:06:43.788Z,22.95
2019-04-07T09:09:13.945Z,22.52
2019-04-07T09:11:42.930Z,22.25
2019-04-07T09:14:11.901Z,21.52
2019-04-07T09:17:01.425Z,21.37
2019-04-07T09:19:44.254Z,20.02
2019-04-07T09:22:31.876Z,21.20
2019-04-07T09:25:06.264Z,19.30
2019-04-07T09:27:35.269Z,20.00
2019-04-07T09:30:10.048Z,20.05
2019-04-07T09:32:43.792Z,19.42
2019-04-07T09:35:25.722Z,18.45
2019-04-07T09:37:55.979Z,18.67
2019-04-07T09:40:39.402Z,19.70
2019-04-07T09:43:12.723Z,18.87
2019-04-07T09:45:59.392Z,19.15
2019-04-07T09:48:40.279Z,19.65
2019-04-07T09:51:27.594Z,18.85
2019-04-07T09:54:14.998Z,19.25
2019-04-07T09:56:52.530Z,19.30
2019-04-07T09:59:36.478Z,19.27
2019-04-07T10:02:25.145Z,19.27
2019-04-07T10:04:56.605Z,19.37
2019-04-07T10:07:27.048Z,19.17
2019-04-07T10:10:16.001Z,20.08
2019-04-07T10:12:52.578Z,18.98
2019-04-07T10:15:25.994Z,20.75
2019-04-07T10:18:05.223Z,20.65
2019-04-07T10:20:44.558Z,20.30
2019-04-07T10:23:32.261Z,20.57
2019-04-07T10:26:13.174Z,20.80
2019-04-07T10:28:44.175Z,18.10
2019-04-07T10:31:26.992Z,19.73
2019-04-07T10:34:08.182Z,21.00
2019-04-07T10:36:46.485Z,20.30
2019-04-07T10:39:19.876Z,21.35
2019-04-07T10:41:53.245Z,19.87
2019-04-07T10:44:34.093Z,22.13
2019-04-07T10:47:21.065Z,22.10
2019-04-07T10:50:01.532Z,23.02
2019-04-07T10:52:33.913Z,21.68
2019-04-07T10:55:04.959Z,22.67
2019-04-07T10:57:35.452Z,22.95
2019-04-07T11:00:14.874Z,21.40
2019-04-07T11:02:47.819Z,22.35
2019-04-07T11:05:24.380Z,22.00
2019-04-07T11:08:07.178Z,20.15
2019-04-07T11:10:48.521Z,20.20
2019-04-07T11:13:37.068Z,21.43
2019-04-07T11:16:17.297Z,19.80
2019-04-07T11:18:56.969Z,20.02
2019-04-07T11:21:39.372Z,21.87
2019-04-07T11:24:10.302Z,19.80
2019-04-07T11:26:46.486Z,19.82
2019-04-07T11:29:37.347Z,19.37
2019-04-07T11:32:08.850Z,18.92
2019-04-07T11:34:48.655Z,18.62
2019-04-07T11:37:36.449Z,19.80
2019-04-07T11:40:20.941Z,21.00
2019-04-07T11:43:07.011Z,18.92
2019-04-07T11:45:58.340Z,20.15
2019-04-07T11:48:24.113Z,19.75
2019-04-07T11:51:14.057Z,19.20
2019-04-07T11:54:01.680Z,18.77
2019-04-07T11:56:38.310Z,21.15
2019-04-07T11:59:10.169Z,17.85
2019-04-07T12:01:59.776Z,19.07
2019-04-07T12:04:31.662Z,18.98
2019-04-07T12:07:11.254Z,18.32
2019-04-07T12:09:44.493Z,21.37
2019-04-07T12:12:30.065Z,22.55
2019-04-07T12:15:02.535Z,20.17
2019-04-07T12:17:32.986Z,18.50
2019-04-07T12:20:04.172Z,18.33
2019-04-07T12:22:50.187Z,20.55
2019-04-07T12:25:23.679Z,21.55
2019-04-07T12:27:56.012Z,19.40
2019-04-07T12:30:42.700Z,17.98
2019-04-07T12:33:20.040Z,18.45
2019-04-07T12:36:09.436Z,19.48
2019-04-07T12:38:52.281Z,25.00
2019-04-07T12:41:40.998Z,22.80
2019-04-07T12:44:17.608Z,20.35
2019-04-07T12:47:05.298Z,19.50
2019-04-07T12:49:50.332Z,18.62
2019-04-07T12:52:37.658Z,18.98
2019-04-07T12:55:17.859Z,20.08
2019-04-07T12:57:56.932Z,18.57
2019-04-07T13:00:44.642Z,20.03
2019-04-07T13:03:24.132Z,18.77
2019-04-07T13:08:58.126Z,19.55
2019-04-07T13:11:39.511Z,18.95
2019-04-07T13:14:18.346Z,19.42
2019-04-07T13:17:02.411Z,18.52
2019-04-07T13:19:41.814Z,20.17
2019-04-07T13:22:21.539Z,18.30
2019-04-07T13:25:09.100Z,19.82
2019-04-07T13:27:40.360Z,20.10
2019-04-07T13:30:27.105Z,18.82
2019-04-07T13:33:04.901Z,19.30
2019-04-07T13:35:53.565Z,19.17
2019-04-07T13:38:26.999Z,19.87
2019-04-07T13:41:02.979Z,18.57
2019-04-07T13:43:33.775Z,19.73
2019-04-07T13:46:18.868Z,21.23
2019-04-07T13:48:41.813Z,19.73
2019-04-07T13:51:12.976Z,20.90
2019-04-07T13:53:57.639Z,19.77
2019-04-07T13:56:36.556Z,19.27
2019-04-07T13:59:11.344Z,20.27
2019-04-07T14:01:45.113Z,18.80
2019-04-07T14:04:33.812Z,19.17
2019-04-07T14:07:03.839Z,19.27
2019-04-07T14:09:52.802Z,20.08
2019-04-07T14:12:30.999Z,20.30
2019-04-07T14:15:04.148Z,19.65
2019-04-07T14:17:50.364Z,20.17
2019-04-07T14:20:23.775Z,20.57
2019-04-07T14:22:57.805Z,19.85
2019-04-07T14:25:43.473Z,20.60
2019-04-07T14:28:30.882Z,20.32
2019-04-07T14:31:17.464Z,19.98
2019-04-07T14:34:00.195Z,21.73
2019-04-07T14:36:47.927Z,22.80
2019-04-07T14:39:27.089Z,22.73
2019-04-07T14:42:06.336Z,25.08
2019-04-07T14:44:41.199Z,22.77
2019-04-07T14:47:12.003Z,22.45
2019-04-07T14:50:00.540Z,22.25
2019-04-07T14:52:37.182Z,23.22
2019-04-07T14:55:17.328Z,22.48
2019-04-07T14:57:47.738Z,22.02
2019-04-07T15:00:31.201Z,21.45
2019-04-07T15:03:00.910Z,20.40
2019-04-07T15:05:34.246Z,20.37
2019-04-07T15:08:05.000Z,21.68
2019-04-07T15:10:36.141Z,21.48
2019-04-07T15:13:08.793Z,23.18
2019-04-07T15:15:37.400Z,22.32
2019-04-07T15:18:07.121Z,22.15
2019-04-07T15:20:36.094Z,20.92
2019-04-07T15:23:05.526Z,20.62
2019-04-07T15:25:41.281Z,22.35
2019-04-07T15:28:08.915Z,22.82
2019-04-07T15:30:38.408Z,22.70
2019-04-07T15:33:10.906Z,22.15
2019-04-07T15:35:38.464Z,23.67
2019-04-07T15:38:07.431Z,22.42
2019-04-07T15:40:38.502Z,22.67
2019-04-07T15:43:09.746Z,23.25
2019-04-07T15:45:39.756Z,24.15
2019-04-07T15:48:08.268Z,22.93
2019-04-07T15:50:38.079Z,24.12
2019-04-07T15:53:07.261Z,23.55
2019-04-07T15:55:45.936Z,22.58
2019-04-07T15:58:09.589Z,25.82
2019-04-07T16:00:38.797Z,26.33
2019-04-07T16:03:08.491Z,23.45
2019-04-07T16:05:42.044Z,24.77
2019-04-07T16:08:08.478Z,24.40
2019-04-07T16:10:39.076Z,24.02
2019-04-07T16:13:08.878Z,26.75
2019-04-07T16:15:38.627Z,28.55
2019-04-07T16:18:08.604Z,28.95
2019-04-07T16:20:40.281Z,28.00
2019-04-07T16:23:08.202Z,28.10
2019-04-07T16:25:39.321Z,29.95
2019-04-07T16:28:11.419Z,29.10
2019-04-07T16:30:38.299Z,26.70
2019-04-07T16:33:07.702Z,25.45
2019-04-07T16:35:36.867Z,25.65
2019-04-07T16:38:09.973Z,25.97
2019-04-07T16:40:41.924Z,24.10
2019-04-07T16:43:14.487Z,24.85
2019-04-07T16:45:44.137Z,26.17
2019-04-07T16:48:10.811Z,27.17
2019-04-07T16:50:41.831Z,29.05
2019-04-07T16:53:11.842Z,28.90
2019-04-07T16:55:44.033Z,29.90
2019-04-07T16:58:12.432Z,32.63
2019-04-07T17:00:41.903Z,29.98
2019-04-07T17:03:13.197Z,29.70
2019-04-07T17:05:43.628Z,31.05
2019-04-07T17:08:12.858Z,30.45
2019-04-07T17:10:41.817Z,32.67
2019-04-07T17:13:19.667Z,34.78
2019-04-07T17:15:42.879Z,34.27
2019-04-07T17:18:33.403Z,39.85
2019-04-07T17:21:02.404Z,38.63
2019-04-07T17:23:31.216Z,55.67
2019-04-07T17:26:03.844Z,43.35
2019-04-07T17:28:30.544Z,44.30
2019-04-07T17:31:00.160Z,43.55
2019-04-07T17:33:29.573Z,46.90
2019-04-07T17:36:00.421Z,45.35
2019-04-07T17:38:39.785Z,44.93
2019-04-07T17:41:09.505Z,46.05
2019-04-07T17:43:52.715Z,46.13
2019-04-07T17:46:16.669Z,45.38
2019-04-07T17:48:57.149Z,48.00
2019-04-07T17:51:25.223Z,50.70
2019-04-07T17:53:55.666Z,52.53
2019-04-07T17:56:30.349Z,59.95
2019-04-07T17:59:04.626Z,77.80
2019-04-07T18:01:56.759Z,86.00
2019-04-07T18:04:38.958Z,89.62
2019-04-07T18:07:28.409Z,85.90
2019-04-07T18:10:10.034Z,85.72
2019-04-07T18:12:40.164Z,84.50
2019-04-07T18:15:14.826Z,88.25
2019-04-07T18:17:56.047Z,90.25
2019-04-07T18:20:30.524Z,89.00
2019-04-07T18:23:04.270Z,92.08
2019-04-07T18:25:35.265Z,88.97
2019-04-07T18:28:24.669Z,93.05
2019-04-07T18:30:53.852Z,90.92
2019-04-07T18:33:25.090Z,95.25
2019-04-07T18:35:56.105Z,97.75
2019-04-07T18:38:27.458Z,94.77
2019-04-07T18:41:11.186Z,98.37
2019-04-07T18:43:53.771Z,94.77
2019-04-07T18:46:28.091Z,95.92
2019-04-07T18:49:11.406Z,88.30
2019-04-07T18:52:00.210Z,86.65
2019-04-07T18:54:46.430Z,85.03
2019-04-07T18:57:23.807Z,99.90
2019-04-07T19:00:01.312Z,89.70
2019-04-07T19:02:38.055Z,83.78
2019-04-07T19:05:14.127Z,76.55
2019-04-07T19:08:00.658Z,82.22
2019-04-07T19:10:50.906Z,94.65
2019-04-07T19:13:27.267Z,99.25
2019-04-07T19:16:06.187Z,115.97
2019-04-07T19:18:52.959Z,109.07
2019-04-07T19:21:38.841Z,114.10
2019-04-07T19:24:10.722Z,114.55
2019-04-07T19:26:42.156Z,109.87
2019-04-07T19:29:25.079Z,125.65
2019-04-07T19:31:59.710Z,122.45
2019-04-07T19:34:31.821Z,118.40
2019-04-07T19:37:22.887Z,116.95
2019-04-07T19:40:02.874Z,117.45
2019-04-07T19:42:39.086Z,111.60
2019-04-07T19:45:27.729Z,106.92
2019-04-07T19:48:07.393Z,106.60
2019-04-07T19:50:37.033Z,110.05
2019-04-07T19:53:16.133Z,105.78
2019-04-07T19:55:48.663Z,100.35
2019-04-07T19:58:21.949Z,104.47
2019-04-07T20:01:08.543Z,107.65
2019-04-07T20:03:54.293Z,116.50
2019-04-07T20:06:25.173Z,110.92
2019-04-07T20:09:00.080Z,114.67
2019-04-07T20:11:37.524Z,108.90
2019-04-07T20:14:14.389Z,111.15
2019-04-07T20:17:00.526Z,104.35
2019-04-07T20:19:38.547Z,105.63
2019-04-07T20:22:15.906Z,109.52
2019-04-07T20:24:48.779Z,113.68
2019-04-07T20:27:36.500Z,111.85
2019-04-07T20:30:13.479Z,116.03
2019-04-07T20:32:43.533Z,128.25
2019-04-07T20:35:15.481Z,122.98
2019-04-07T20:38:04.757Z,106.22
2019-04-07T20:40:41.989Z,111.25
2019-04-07T20:43:23.470Z,113.70
2019-04-07T20:45:56.906Z,115.67
2019-04-07T20:48:37.056Z,113.25
2019-04-07T20:51:26.494Z,118.30
2019-04-07T20:54:09.784Z,113.22
2019-04-07T20:56:46.999Z,115.50
2019-04-07T20:59:31.516Z,88.12
2019-04-07T21:02:08.199Z,80.10
2019-04-07T21:04:41.844Z,81.55
2019-04-07T21:07:15.358Z,75.60
2019-04-07T21:09:48.461Z,79.22
2019-04-07T21:12:18.844Z,68.20
2019-04-07T21:14:54.973Z,49.55
2019-04-07T21:17:29.680Z,39.00
2019-04-07T21:20:00.357Z,34.23
2019-04-07T21:22:31.432Z,32.13
2019-04-07T21:25:13.809Z,29.18
2019-04-07T21:27:44.194Z,26.50
2019-04-07T21:30:17.325Z,24.65
2019-04-07T21:32:52.426Z,23.40
2019-04-07T21:35:22.687Z,21.42
2019-04-07T21:37:53.045Z,20.85
2019-04-07T21:40:32.500Z,25.27
2019-04-07T21:43:02.872Z,24.85
2019-04-07T21:45:45.673Z,22.60
2019-04-07T21:48:17.938Z,24.27
2019-04-07T21:51:03.300Z,23.50
2019-04-07T21:53:49.939Z,23.38
2019-04-07T21:56:20.355Z,23.27
2019-04-07T21:59:07.492Z,24.30
2019-04-07T22:01:39.011Z,24.10
2019-04-07T22:04:10.432Z,24.63
2019-04-07T22:06:40.925Z,24.87
2019-04-07T22:09:20.645Z,25.72
2019-04-07T22:11:49.528Z,26.23
2019-04-07T22:14:18.852Z,26.35
2019-04-07T22:16:47.665Z,25.40
2019-04-07T22:19:17.298Z,28.38
2019-04-07T22:21:46.445Z,25.60
2019-04-07T22:24:15.257Z,27.17
2019-04-07T22:26:49.200Z,27.30
2019-04-07T22:29:14.422Z,28.38
2019-04-07T22:31:46.069Z,30.60
2019-04-07T22:34:15.342Z,28.67
2019-04-07T22:36:47.015Z,30.68
2019-04-07T22:39:14.464Z,29.85
2019-04-07T22:41:44.186Z,29.32
2019-04-07T22:44:13.387Z,30.48
2019-04-07T22:46:42.213Z,33.28
2019-04-07T22:49:11.386Z,31.05
2019-04-07T22:51:43.025Z,31.23
2019-04-07T22:54:10.604Z,31.17
2019-04-07T22:56:40.788Z,32.90
2019-04-07T22:59:10.481Z,36.33
2019-04-07T23:01:40.948Z,33.90
2019-04-07T23:04:09.709Z,36.73
2019-04-07T23:06:38.439Z,36.15
2019-04-07T23:09:07.950Z,32.50
2019-04-07T23:11:37.478Z,34.63
2019-04-07T23:14:07.295Z,35.73
2019-04-07T23:16:36.152Z,36.85
2019-04-07T23:19:05.253Z,36.13
2019-04-07T23:21:34.150Z,37.50
2019-04-07T23:24:05.499Z,35.33
2019-04-07T23:26:34.467Z,36.95
2019-04-07T23:29:03.720Z,36.90
2019-04-07T23:31:34.276Z,37.15
2019-04-07T23:34:03.306Z,37.98
2019-04-07T23:36:32.038Z,36.38
2019-04-07T23:39:01.583Z,36.65
2019-04-07T23:41:30.418Z,34.40
2019-04-07T23:43:59.167Z,37.25
2019-04-07T23:46:28.496Z,35.13
2019-04-07T23:48:58.123Z,35.38
2019-04-07T23:51:27.032Z,38.38
2019-04-07T23:54:11.754Z,35.70
2019-04-07T23:56:44.421Z,32.73
2019-04-07T23:59:13.359Z,32.20
